sensor_id;sensor_type;location;lat;lon;timestamp;temperature;humidity
45685;DHT22;46836;48.388;16.210;2024-01-30T00:01:17;2.30;99.90
45685;DHT22;46836;48.388;16.210;2024-01-30T00:03:45;2.30;99.90
45685;DHT22;46836;48.388;16.210;2024-01-30T00:06:12;2.30;99.90
45685;DHT22;46836;48.388;16.210;2024-01-30T00:08:39;2.30;99.90
45685;DHT22;46836;48.388;16.210;2024-01-30T00:11:07;2.30;99.90
45685;DHT22;46836;48.388;16.210;2024-01-30T00:13:34;2.30;99.90
45685;DHT22;46836;48.388;16.210;2024-01-30T00:16:01;2.30;99.90
45685;DHT22;46836;48.388;16.210;2024-01-30T00:18:28;2.20;99.90
45685;DHT22;46836;48.388;16.210;2024-01-30T00:20:56;2.20;99.90
45685;DHT22;46836;48.388;16.210;2024-01-30T00:23:23;2.20;99.90
45685;DHT22;46836;48.388;16.210;2024-01-30T00:25:50;2.20;99.90
45685;DHT22;46836;48.388;16.210;2024-01-30T00:28:17;2.20;99.90
45685;DHT22;46836;48.388;16.210;2024-01-30T00:30:44;2.20;99.90
45685;DHT22;46836;48.388;16.210;2024-01-30T00:33:11;2.20;99.90
45685;DHT22;46836;48.388;16.210;2024-01-30T00:35:38;2.20;99.90
45685;DHT22;46836;48.388;16.210;2024-01-30T00:38:05;2.20;99.90
45685;DHT22;46836;48.388;16.210;2024-01-30T00:40:34;2.10;99.90
45685;DHT22;46836;48.388;16.210;2024-01-30T00:43:01;2.10;99.90
45685;DHT22;46836;48.388;16.210;2024-01-30T00:45:29;2.10;99.90
45685;DHT22;46836;48.388;16.210;2024-01-30T00:47:56;2.10;99.90
45685;DHT22;46836;48.388;16.210;2024-01-30T00:50:23;2.10;99.90
45685;DHT22;46836;48.388;16.210;2024-01-30T00:52:50;2.10;99.90
45685;DHT22;46836;48.388;16.210;2024-01-30T00:55:18;2.10;99.90
45685;DHT22;46836;48.388;16.210;2024-01-30T00:57:45;2.10;99.90
45685;DHT22;46836;48.388;16.210;2024-01-30T01:00:13;2.10;99.90
45685;DHT22;46836;48.388;16.210;2024-01-30T01:02:43;2.10;99.90
45685;DHT22;46836;48.388;16.210;2024-01-30T01:05:10;2.10;99.90
45685;DHT22;46836;48.388;16.210;2024-01-30T01:07:37;2.00;99.90
45685;DHT22;46836;48.388;16.210;2024-01-30T01:10:05;2.00;99.90
45685;DHT22;46836;48.388;16.210;2024-01-30T01:12:32;2.00;99.90
45685;DHT22;46836;48.388;16.210;2024-01-30T01:14:59;2.00;99.90
45685;DHT22;46836;48.388;16.210;2024-01-30T01:17:26;2.00;99.90
45685;DHT22;46836;48.388;16.210;2024-01-30T01:19:54;2.00;99.90
45685;DHT22;46836;48.388;16.210;2024-01-30T01:22:21;2.00;99.90
45685;DHT22;46836;48.388;16.210;2024-01-30T01:24:48;2.00;99.90
45685;DHT22;46836;48.388;16.210;2024-01-30T01:27:15;1.90;99.90
45685;DHT22;46836;48.388;16.210;2024-01-30T01:29:43;2.00;99.90
45685;DHT22;46836;48.388;16.210;2024-01-30T01:32:10;2.00;99.90
45685;DHT22;46836;48.388;16.210;2024-01-30T01:34:37;1.90;99.90
45685;DHT22;46836;48.388;16.210;2024-01-30T01:37:04;1.90;99.90
45685;DHT22;46836;48.388;16.210;2024-01-30T01:39:31;1.90;99.90
45685;DHT22;46836;48.388;16.210;2024-01-30T01:41:58;1.90;99.90
45685;DHT22;46836;48.388;16.210;2024-01-30T01:44:25;1.90;99.90
45685;DHT22;46836;48.388;16.210;2024-01-30T01:46:52;1.90;99.90
45685;DHT22;46836;48.388;16.210;2024-01-30T01:49:22;1.90;99.90
45685;DHT22;46836;48.388;16.210;2024-01-30T01:51:51;1.90;99.90
45685;DHT22;46836;48.388;16.210;2024-01-30T01:54:20;1.90;99.90
45685;DHT22;46836;48.388;16.210;2024-01-30T01:56:48;1.90;99.90
45685;DHT22;46836;48.388;16.210;2024-01-30T01:59:15;1.80;99.90
45685;DHT22;46836;48.388;16.210;2024-01-30T02:01:43;1.90;99.90
45685;DHT22;46836;48.388;16.210;2024-01-30T02:04:10;1.90;99.90
45685;DHT22;46836;48.388;16.210;2024-01-30T02:06:37;1.80;99.90
45685;DHT22;46836;48.388;16.210;2024-01-30T02:09:05;1.80;99.90
45685;DHT22;46836;48.388;16.210;2024-01-30T02:11:32;1.80;99.90
45685;DHT22;46836;48.388;16.210;2024-01-30T02:14:05;1.80;99.90
45685;DHT22;46836;48.388;16.210;2024-01-30T02:16:32;1.80;99.90
45685;DHT22;46836;48.388;16.210;2024-01-30T02:19:00;1.80;99.90
45685;DHT22;46836;48.388;16.210;2024-01-30T02:21:27;1.80;99.90
45685;DHT22;46836;48.388;16.210;2024-01-30T02:23:54;1.80;99.90
45685;DHT22;46836;48.388;16.210;2024-01-30T02:26:22;1.80;99.90
45685;DHT22;46836;48.388;16.210;2024-01-30T02:28:49;1.70;99.90
45685;DHT22;46836;48.388;16.210;2024-01-30T02:31:16;1.70;99.90
45685;DHT22;46836;48.388;16.210;2024-01-30T02:33:43;1.70;99.90
45685;DHT22;46836;48.388;16.210;2024-01-30T02:36:11;1.70;99.90
45685;DHT22;46836;48.388;16.210;2024-01-30T02:38:38;1.70;99.90
45685;DHT22;46836;48.388;16.210;2024-01-30T02:41:05;1.70;99.90
45685;DHT22;46836;48.388;16.210;2024-01-30T02:43:32;1.70;99.90
45685;DHT22;46836;48.388;16.210;2024-01-30T02:45:59;1.70;99.90
45685;DHT22;46836;48.388;16.210;2024-01-30T02:48:27;1.70;99.90
45685;DHT22;46836;48.388;16.210;2024-01-30T02:50:55;1.70;99.90
45685;DHT22;46836;48.388;16.210;2024-01-30T02:53:22;1.60;99.90
45685;DHT22;46836;48.388;16.210;2024-01-30T02:55:49;1.70;99.90
45685;DHT22;46836;48.388;16.210;2024-01-30T02:58:16;1.60;99.90
45685;DHT22;46836;48.388;16.210;2024-01-30T03:00:43;1.60;99.90
45685;DHT22;46836;48.388;16.210;2024-01-30T03:03:10;1.70;99.90
45685;DHT22;46836;48.388;16.210;2024-01-30T03:05:37;1.70;99.90
45685;DHT22;46836;48.388;16.210;2024-01-30T03:08:05;1.60;99.90
45685;DHT22;46836;48.388;16.210;2024-01-30T03:10:32;1.60;99.90
45685;DHT22;46836;48.388;16.210;2024-01-30T03:12:59;1.60;99.90
45685;DHT22;46836;48.388;16.210;2024-01-30T03:15:26;1.60;99.90
45685;DHT22;46836;48.388;16.210;2024-01-30T03:17:54;1.60;99.90
45685;DHT22;46836;48.388;16.210;2024-01-30T03:20:21;1.60;99.90
45685;DHT22;46836;48.388;16.210;2024-01-30T03:22:48;1.60;99.90
45685;DHT22;46836;48.388;16.210;2024-01-30T03:25:15;1.60;99.90
45685;DHT22;46836;48.388;16.210;2024-01-30T03:27:42;1.60;99.90
45685;DHT22;46836;48.388;16.210;2024-01-30T03:30:09;1.60;99.90
45685;DHT22;46836;48.388;16.210;2024-01-30T03:32:36;1.60;99.90
45685;DHT22;46836;48.388;16.210;2024-01-30T03:35:04;1.60;99.90
45685;DHT22;46836;48.388;16.210;2024-01-30T03:37:31;1.60;99.90
45685;DHT22;46836;48.388;16.210;2024-01-30T03:39:58;1.60;99.90
45685;DHT22;46836;48.388;16.210;2024-01-30T03:42:26;1.60;99.90
45685;DHT22;46836;48.388;16.210;2024-01-30T03:44:53;1.50;99.90
45685;DHT22;46836;48.388;16.210;2024-01-30T03:47:21;1.50;99.90
45685;DHT22;46836;48.388;16.210;2024-01-30T03:49:48;1.50;99.90
45685;DHT22;46836;48.388;16.210;2024-01-30T03:52:15;1.50;99.90
45685;DHT22;46836;48.388;16.210;2024-01-30T03:54:42;1.50;99.90
45685;DHT22;46836;48.388;16.210;2024-01-30T03:57:09;1.50;99.90
45685;DHT22;46836;48.388;16.210;2024-01-30T03:59:36;1.50;99.90
45685;DHT22;46836;48.388;16.210;2024-01-30T04:02:03;1.50;99.90
45685;DHT22;46836;48.388;16.210;2024-01-30T04:04:31;1.50;99.90
45685;DHT22;46836;48.388;16.210;2024-01-30T04:06:58;1.50;99.90
45685;DHT22;46836;48.388;16.210;2024-01-30T04:09:25;1.50;99.90
45685;DHT22;46836;48.388;16.210;2024-01-30T04:11:53;1.50;99.90
45685;DHT22;46836;48.388;16.210;2024-01-30T04:14:20;1.50;99.90
45685;DHT22;46836;48.388;16.210;2024-01-30T04:16:47;1.50;99.90
45685;DHT22;46836;48.388;16.210;2024-01-30T04:19:14;1.50;99.90
45685;DHT22;46836;48.388;16.210;2024-01-30T04:21:41;1.40;99.90
45685;DHT22;46836;48.388;16.210;2024-01-30T04:24:08;1.40;99.90
45685;DHT22;46836;48.388;16.210;2024-01-30T04:26:35;1.40;99.90
45685;DHT22;46836;48.388;16.210;2024-01-30T04:29:03;1.40;99.90
45685;DHT22;46836;48.388;16.210;2024-01-30T04:31:30;1.40;99.90
45685;DHT22;46836;48.388;16.210;2024-01-30T04:33:57;1.40;99.90
45685;DHT22;46836;48.388;16.210;2024-01-30T04:36:25;1.40;99.90
45685;DHT22;46836;48.388;16.210;2024-01-30T04:38:52;1.40;99.90
45685;DHT22;46836;48.388;16.210;2024-01-30T04:41:19;1.40;99.90
45685;DHT22;46836;48.388;16.210;2024-01-30T04:43:46;1.40;99.90
45685;DHT22;46836;48.388;16.210;2024-01-30T04:46:13;1.30;99.90
45685;DHT22;46836;48.388;16.210;2024-01-30T04:48:40;1.30;99.90
45685;DHT22;46836;48.388;16.210;2024-01-30T04:51:07;1.30;99.90
45685;DHT22;46836;48.388;16.210;2024-01-30T04:53:34;1.30;99.90
45685;DHT22;46836;48.388;16.210;2024-01-30T04:56:01;1.30;99.90
45685;DHT22;46836;48.388;16.210;2024-01-30T04:58:28;1.20;99.90
45685;DHT22;46836;48.388;16.210;2024-01-30T05:00:55;1.20;99.90
45685;DHT22;46836;48.388;16.210;2024-01-30T05:03:24;1.20;99.90
45685;DHT22;46836;48.388;16.210;2024-01-30T05:05:51;1.20;99.90
45685;DHT22;46836;48.388;16.210;2024-01-30T05:08:18;1.20;99.90
45685;DHT22;46836;48.388;16.210;2024-01-30T05:10:45;1.20;99.90
45685;DHT22;46836;48.388;16.210;2024-01-30T05:13:13;1.20;99.90
45685;DHT22;46836;48.388;16.210;2024-01-30T05:15:41;1.20;99.90
45685;DHT22;46836;48.388;16.210;2024-01-30T05:18:08;1.20;99.90
45685;DHT22;46836;48.388;16.210;2024-01-30T05:20:35;1.20;99.90
45685;DHT22;46836;48.388;16.210;2024-01-30T05:23:02;1.10;99.90
45685;DHT22;46836;48.388;16.210;2024-01-30T05:25:29;1.10;99.90
45685;DHT22;46836;48.388;16.210;2024-01-30T05:27:56;1.10;99.90
45685;DHT22;46836;48.388;16.210;2024-01-30T05:30:23;1.10;99.90
45685;DHT22;46836;48.388;16.210;2024-01-30T05:32:50;1.10;99.90
45685;DHT22;46836;48.388;16.210;2024-01-30T05:35:18;1.10;99.90
45685;DHT22;46836;48.388;16.210;2024-01-30T05:37:50;1.10;99.90
45685;DHT22;46836;48.388;16.210;2024-01-30T05:40:17;1.10;99.90
45685;DHT22;46836;48.388;16.210;2024-01-30T05:42:45;1.10;99.90
45685;DHT22;46836;48.388;16.210;2024-01-30T05:45:12;1.10;99.90
45685;DHT22;46836;48.388;16.210;2024-01-30T05:47:39;1.10;99.90
45685;DHT22;46836;48.388;16.210;2024-01-30T05:50:07;1.10;99.90
45685;DHT22;46836;48.388;16.210;2024-01-30T05:52:34;1.10;99.90
45685;DHT22;46836;48.388;16.210;2024-01-30T05:55:01;1.00;99.90
45685;DHT22;46836;48.388;16.210;2024-01-30T05:57:30;1.00;99.90
45685;DHT22;46836;48.388;16.210;2024-01-30T05:59:57;1.00;99.90
45685;DHT22;46836;48.388;16.210;2024-01-30T06:02:24;1.00;99.90
45685;DHT22;46836;48.388;16.210;2024-01-30T06:04:51;1.00;99.90
45685;DHT22;46836;48.388;16.210;2024-01-30T06:07:18;1.00;99.90
45685;DHT22;46836;48.388;16.210;2024-01-30T06:09:45;1.00;99.90
45685;DHT22;46836;48.388;16.210;2024-01-30T06:12:13;1.00;99.90
45685;DHT22;46836;48.388;16.210;2024-01-30T06:14:41;1.00;99.90
45685;DHT22;46836;48.388;16.210;2024-01-30T06:17:13;1.00;99.90
45685;DHT22;46836;48.388;16.210;2024-01-30T06:19:40;1.00;99.90
45685;DHT22;46836;48.388;16.210;2024-01-30T06:22:08;1.00;99.90
45685;DHT22;46836;48.388;16.210;2024-01-30T06:24:35;1.00;99.90
45685;DHT22;46836;48.388;16.210;2024-01-30T06:27:02;1.00;99.90
45685;DHT22;46836;48.388;16.210;2024-01-30T06:29:29;1.00;99.90
45685;DHT22;46836;48.388;16.210;2024-01-30T06:31:56;1.00;99.90
45685;DHT22;46836;48.388;16.210;2024-01-30T06:34:24;1.00;99.90
45685;DHT22;46836;48.388;16.210;2024-01-30T06:36:53;1.00;99.90
45685;DHT22;46836;48.388;16.210;2024-01-30T06:39:20;1.00;99.90
45685;DHT22;46836;48.388;16.210;2024-01-30T06:41:47;1.00;99.90
45685;DHT22;46836;48.388;16.210;2024-01-30T06:44:14;1.00;99.90
45685;DHT22;46836;48.388;16.210;2024-01-30T06:46:41;1.00;99.90
45685;DHT22;46836;48.388;16.210;2024-01-30T06:49:08;1.10;99.90
45685;DHT22;46836;48.388;16.210;2024-01-30T06:51:36;1.10;99.90
45685;DHT22;46836;48.388;16.210;2024-01-30T06:54:03;1.10;99.90
45685;DHT22;46836;48.388;16.210;2024-01-30T06:56:30;1.10;99.90
45685;DHT22;46836;48.388;16.210;2024-01-30T06:58:57;1.10;99.90
45685;DHT22;46836;48.388;16.210;2024-01-30T07:01:29;1.10;99.90
45685;DHT22;46836;48.388;16.210;2024-01-30T07:03:57;1.20;99.90
45685;DHT22;46836;48.388;16.210;2024-01-30T07:06:25;1.20;99.90
45685;DHT22;46836;48.388;16.210;2024-01-30T07:08:52;1.20;99.90
45685;DHT22;46836;48.388;16.210;2024-01-30T07:11:20;1.20;99.90
45685;DHT22;46836;48.388;16.210;2024-01-30T07:13:51;1.30;99.90
45685;DHT22;46836;48.388;16.210;2024-01-30T07:16:18;1.30;99.90
45685;DHT22;46836;48.388;16.210;2024-01-30T07:18:46;1.40;99.90
45685;DHT22;46836;48.388;16.210;2024-01-30T07:21:13;1.40;99.90
45685;DHT22;46836;48.388;16.210;2024-01-30T07:23:42;1.50;99.90
45685;DHT22;46836;48.388;16.210;2024-01-30T07:26:09;1.50;99.90
45685;DHT22;46836;48.388;16.210;2024-01-30T07:28:36;1.60;99.90
45685;DHT22;46836;48.388;16.210;2024-01-30T07:31:04;1.60;99.90
45685;DHT22;46836;48.388;16.210;2024-01-30T07:33:31;1.70;99.90
45685;DHT22;46836;48.388;16.210;2024-01-30T07:35:58;1.80;99.90
45685;DHT22;46836;48.388;16.210;2024-01-30T07:38:25;1.80;99.90
45685;DHT22;46836;48.388;16.210;2024-01-30T07:40:52;1.80;99.90
45685;DHT22;46836;48.388;16.210;2024-01-30T07:43:19;1.90;99.90
45685;DHT22;46836;48.388;16.210;2024-01-30T07:45:47;2.00;99.90
45685;DHT22;46836;48.388;16.210;2024-01-30T07:48:14;2.00;99.90
45685;DHT22;46836;48.388;16.210;2024-01-30T07:50:41;2.00;99.90
45685;DHT22;46836;48.388;16.210;2024-01-30T07:53:08;2.00;99.90
45685;DHT22;46836;48.388;16.210;2024-01-30T07:55:48;2.10;99.90
45685;DHT22;46836;48.388;16.210;2024-01-30T07:58:15;2.20;99.90
45685;DHT22;46836;48.388;16.210;2024-01-30T08:00:42;2.30;99.90
45685;DHT22;46836;48.388;16.210;2024-01-30T08:03:09;2.40;99.90
45685;DHT22;46836;48.388;16.210;2024-01-30T08:05:38;2.50;99.90
45685;DHT22;46836;48.388;16.210;2024-01-30T08:08:06;2.50;99.90
45685;DHT22;46836;48.388;16.210;2024-01-30T08:10:34;2.60;99.90
45685;DHT22;46836;48.388;16.210;2024-01-30T08:13:02;2.70;99.90
45685;DHT22;46836;48.388;16.210;2024-01-30T08:15:29;2.80;99.90
45685;DHT22;46836;48.388;16.210;2024-01-30T08:17:56;2.90;99.90
45685;DHT22;46836;48.388;16.210;2024-01-30T08:20:25;2.90;99.90
45685;DHT22;46836;48.388;16.210;2024-01-30T08:22:52;3.10;99.90
45685;DHT22;46836;48.388;16.210;2024-01-30T08:25:19;3.10;99.90
45685;DHT22;46836;48.388;16.210;2024-01-30T08:27:46;3.20;99.90
45685;DHT22;46836;48.388;16.210;2024-01-30T08:30:14;3.30;99.90
45685;DHT22;46836;48.388;16.210;2024-01-30T08:32:41;3.40;99.90
45685;DHT22;46836;48.388;16.210;2024-01-30T08:35:08;3.50;99.90
45685;DHT22;46836;48.388;16.210;2024-01-30T08:37:36;3.50;99.90
45685;DHT22;46836;48.388;16.210;2024-01-30T08:40:04;3.60;99.90
45685;DHT22;46836;48.388;16.210;2024-01-30T08:42:31;3.60;99.90
45685;DHT22;46836;48.388;16.210;2024-01-30T08:45:00;3.70;99.90
45685;DHT22;46836;48.388;16.210;2024-01-30T08:47:27;3.80;99.90
45685;DHT22;46836;48.388;16.210;2024-01-30T08:49:54;3.80;99.90
45685;DHT22;46836;48.388;16.210;2024-01-30T08:52:21;3.80;99.90
45685;DHT22;46836;48.388;16.210;2024-01-30T08:54:48;3.90;99.90
45685;DHT22;46836;48.388;16.210;2024-01-30T08:57:15;3.90;99.90
45685;DHT22;46836;48.388;16.210;2024-01-30T08:59:43;4.00;99.90
45685;DHT22;46836;48.388;16.210;2024-01-30T09:02:13;4.00;99.90
45685;DHT22;46836;48.388;16.210;2024-01-30T09:04:43;4.10;99.90
45685;DHT22;46836;48.388;16.210;2024-01-30T09:07:10;4.10;99.90
45685;DHT22;46836;48.388;16.210;2024-01-30T09:09:41;4.10;99.90
45685;DHT22;46836;48.388;16.210;2024-01-30T09:12:09;4.10;99.90
45685;DHT22;46836;48.388;16.210;2024-01-30T09:14:39;4.30;99.90
45685;DHT22;46836;48.388;16.210;2024-01-30T09:17:07;4.30;99.90
45685;DHT22;46836;48.388;16.210;2024-01-30T09:19:35;4.40;99.90
45685;DHT22;46836;48.388;16.210;2024-01-30T09:22:03;4.50;99.90
45685;DHT22;46836;48.388;16.210;2024-01-30T09:24:30;4.60;99.90
45685;DHT22;46836;48.388;16.210;2024-01-30T09:26:57;4.60;99.90
45685;DHT22;46836;48.388;16.210;2024-01-30T09:29:25;4.70;99.90
45685;DHT22;46836;48.388;16.210;2024-01-30T09:31:53;4.70;99.90
45685;DHT22;46836;48.388;16.210;2024-01-30T09:34:20;4.70;99.90
45685;DHT22;46836;48.388;16.210;2024-01-30T09:36:48;4.70;99.90
45685;DHT22;46836;48.388;16.210;2024-01-30T09:39:15;4.70;99.90
45685;DHT22;46836;48.388;16.210;2024-01-30T09:41:49;4.80;99.90
45685;DHT22;46836;48.388;16.210;2024-01-30T09:44:19;4.80;99.90
45685;DHT22;46836;48.388;16.210;2024-01-30T09:46:48;4.80;99.90
45685;DHT22;46836;48.388;16.210;2024-01-30T09:49:15;4.80;99.90
45685;DHT22;46836;48.388;16.210;2024-01-30T09:51:48;4.70;99.90
45685;DHT22;46836;48.388;16.210;2024-01-30T09:54:15;4.60;99.90
45685;DHT22;46836;48.388;16.210;2024-01-30T09:56:43;4.50;99.90
45685;DHT22;46836;48.388;16.210;2024-01-30T09:59:10;4.40;99.90
45685;DHT22;46836;48.388;16.210;2024-01-30T10:01:38;4.20;99.90
45685;DHT22;46836;48.388;16.210;2024-01-30T10:04:07;4.10;99.90
45685;DHT22;46836;48.388;16.210;2024-01-30T10:06:34;4.00;99.90
45685;DHT22;46836;48.388;16.210;2024-01-30T10:09:02;3.90;99.90
45685;DHT22;46836;48.388;16.210;2024-01-30T10:11:29;3.90;99.90
45685;DHT22;46836;48.388;16.210;2024-01-30T10:13:57;3.80;99.90
45685;DHT22;46836;48.388;16.210;2024-01-30T10:16:24;3.80;99.90
45685;DHT22;46836;48.388;16.210;2024-01-30T10:18:51;3.80;99.90
45685;DHT22;46836;48.388;16.210;2024-01-30T10:21:19;3.70;99.90
45685;DHT22;46836;48.388;16.210;2024-01-30T10:23:46;3.70;99.90
45685;DHT22;46836;48.388;16.210;2024-01-30T10:26:13;3.60;99.90
45685;DHT22;46836;48.388;16.210;2024-01-30T10:28:40;3.40;99.90
45685;DHT22;46836;48.388;16.210;2024-01-30T10:31:07;3.30;99.90
45685;DHT22;46836;48.388;16.210;2024-01-30T10:33:35;3.30;99.90
45685;DHT22;46836;48.388;16.210;2024-01-30T10:36:04;3.50;99.90
45685;DHT22;46836;48.388;16.210;2024-01-30T10:38:32;3.60;99.90
45685;DHT22;46836;48.388;16.210;2024-01-30T10:41:01;3.60;99.90
45685;DHT22;46836;48.388;16.210;2024-01-30T10:43:33;3.50;99.90
45685;DHT22;46836;48.388;16.210;2024-01-30T10:46:19;3.40;99.90
45685;DHT22;46836;48.388;16.210;2024-01-30T10:48:57;3.40;99.90
45685;DHT22;46836;48.388;16.210;2024-01-30T10:51:28;3.20;99.90
45685;DHT22;46836;48.388;16.210;2024-01-30T10:53:56;3.20;99.90
45685;DHT22;46836;48.388;16.210;2024-01-30T10:56:25;3.10;99.90
45685;DHT22;46836;48.388;16.210;2024-01-30T10:58:53;3.10;99.90
45685;DHT22;46836;48.388;16.210;2024-01-30T11:01:21;3.10;99.90
45685;DHT22;46836;48.388;16.210;2024-01-30T11:03:52;3.10;99.90
45685;DHT22;46836;48.388;16.210;2024-01-30T11:06:25;3.20;99.90
45685;DHT22;46836;48.388;16.210;2024-01-30T11:09:05;3.10;99.90
45685;DHT22;46836;48.388;16.210;2024-01-30T11:14:16;3.30;99.90
45685;DHT22;46836;48.388;16.210;2024-01-30T11:16:49;3.30;99.90
45685;DHT22;46836;48.388;16.210;2024-01-30T11:19:26;3.30;99.90
45685;DHT22;46836;48.388;16.210;2024-01-30T11:21:54;3.30;99.90
45685;DHT22;46836;48.388;16.210;2024-01-30T11:24:24;3.40;99.90
45685;DHT22;46836;48.388;16.210;2024-01-30T11:26:59;3.40;99.90
45685;DHT22;46836;48.388;16.210;2024-01-30T11:29:28;3.50;99.90
45685;DHT22;46836;48.388;16.210;2024-01-30T11:31:56;3.50;99.90
45685;DHT22;46836;48.388;16.210;2024-01-30T11:34:24;3.60;99.90
45685;DHT22;46836;48.388;16.210;2024-01-30T11:36:56;3.70;99.90
45685;DHT22;46836;48.388;16.210;2024-01-30T11:39:27;3.90;99.90
45685;DHT22;46836;48.388;16.210;2024-01-30T11:41:56;3.90;99.90
45685;DHT22;46836;48.388;16.210;2024-01-30T11:44:23;4.00;99.90
45685;DHT22;46836;48.388;16.210;2024-01-30T11:46:52;4.10;99.90
45685;DHT22;46836;48.388;16.210;2024-01-30T11:49:20;4.10;99.90
45685;DHT22;46836;48.388;16.210;2024-01-30T11:51:48;4.20;99.90
45685;DHT22;46836;48.388;16.210;2024-01-30T11:54:19;4.20;99.90
45685;DHT22;46836;48.388;16.210;2024-01-30T11:56:46;4.10;99.90
45685;DHT22;46836;48.388;16.210;2024-01-30T11:59:13;4.20;99.90
45685;DHT22;46836;48.388;16.210;2024-01-30T12:01:41;4.20;99.90
45685;DHT22;46836;48.388;16.210;2024-01-30T12:04:09;4.30;99.90
45685;DHT22;46836;48.388;16.210;2024-01-30T12:06:39;4.30;99.90
45685;DHT22;46836;48.388;16.210;2024-01-30T12:09:06;4.50;99.90
45685;DHT22;46836;48.388;16.210;2024-01-30T12:11:48;4.60;99.90
45685;DHT22;46836;48.388;16.210;2024-01-30T12:14:17;4.70;99.90
45685;DHT22;46836;48.388;16.210;2024-01-30T12:16:48;4.70;99.90
45685;DHT22;46836;48.388;16.210;2024-01-30T12:19:26;4.60;99.90
45685;DHT22;46836;48.388;16.210;2024-01-30T12:21:59;4.60;99.90
45685;DHT22;46836;48.388;16.210;2024-01-30T12:24:27;4.60;99.90
45685;DHT22;46836;48.388;16.210;2024-01-30T12:26:58;4.60;99.90
45685;DHT22;46836;48.388;16.210;2024-01-30T12:29:25;4.70;99.90
45685;DHT22;46836;48.388;16.210;2024-01-30T12:32:00;4.70;99.90
45685;DHT22;46836;48.388;16.210;2024-01-30T12:34:27;4.80;99.90
45685;DHT22;46836;48.388;16.210;2024-01-30T12:36:55;4.80;99.90
45685;DHT22;46836;48.388;16.210;2024-01-30T12:39:22;4.90;99.90
45685;DHT22;46836;48.388;16.210;2024-01-30T12:41:51;4.90;99.90
45685;DHT22;46836;48.388;16.210;2024-01-30T12:44:18;4.90;99.90
45685;DHT22;46836;48.388;16.210;2024-01-30T12:46:47;4.90;99.90
45685;DHT22;46836;48.388;16.210;2024-01-30T12:49:14;4.90;99.90
45685;DHT22;46836;48.388;16.210;2024-01-30T12:51:43;4.80;99.90
45685;DHT22;46836;48.388;16.210;2024-01-30T12:54:10;4.90;99.90
45685;DHT22;46836;48.388;16.210;2024-01-30T12:56:39;4.90;99.90
45685;DHT22;46836;48.388;16.210;2024-01-30T12:59:06;4.90;99.90
45685;DHT22;46836;48.388;16.210;2024-01-30T13:01:33;5.00;99.90
45685;DHT22;46836;48.388;16.210;2024-01-30T13:04:00;5.00;99.90
45685;DHT22;46836;48.388;16.210;2024-01-30T13:06:28;5.00;99.90
45685;DHT22;46836;48.388;16.210;2024-01-30T13:08:55;5.00;99.90
45685;DHT22;46836;48.388;16.210;2024-01-30T13:11:22;5.00;99.90
45685;DHT22;46836;48.388;16.210;2024-01-30T13:13:49;5.10;99.90
45685;DHT22;46836;48.388;16.210;2024-01-30T13:16:17;5.10;99.90
45685;DHT22;46836;48.388;16.210;2024-01-30T13:18:46;5.10;99.90
45685;DHT22;46836;48.388;16.210;2024-01-30T13:21:13;5.00;99.90
45685;DHT22;46836;48.388;16.210;2024-01-30T13:23:40;4.90;99.90
45685;DHT22;46836;48.388;16.210;2024-01-30T13:26:07;4.90;99.90
45685;DHT22;46836;48.388;16.210;2024-01-30T13:28:35;5.00;99.90
45685;DHT22;46836;48.388;16.210;2024-01-30T13:31:02;4.90;99.90
45685;DHT22;46836;48.388;16.210;2024-01-30T13:33:29;5.00;99.90
45685;DHT22;46836;48.388;16.210;2024-01-30T13:35:56;5.00;99.90
45685;DHT22;46836;48.388;16.210;2024-01-30T13:38:23;5.00;99.90
45685;DHT22;46836;48.388;16.210;2024-01-30T13:40:51;5.00;99.90
45685;DHT22;46836;48.388;16.210;2024-01-30T13:43:18;5.00;99.90
45685;DHT22;46836;48.388;16.210;2024-01-30T13:45:45;4.90;99.90
45685;DHT22;46836;48.388;16.210;2024-01-30T13:48:13;4.90;99.90
45685;DHT22;46836;48.388;16.210;2024-01-30T13:50:40;4.90;99.90
45685;DHT22;46836;48.388;16.210;2024-01-30T13:53:07;4.90;99.90
45685;DHT22;46836;48.388;16.210;2024-01-30T13:55:34;4.90;99.90
45685;DHT22;46836;48.388;16.210;2024-01-30T13:58:02;4.90;99.90
45685;DHT22;46836;48.388;16.210;2024-01-30T14:00:29;4.90;99.90
45685;DHT22;46836;48.388;16.210;2024-01-30T14:02:57;4.80;99.90
45685;DHT22;46836;48.388;16.210;2024-01-30T14:05:26;4.90;99.90
45685;DHT22;46836;48.388;16.210;2024-01-30T14:07:58;4.80;99.90
45685;DHT22;46836;48.388;16.210;2024-01-30T14:10:26;4.70;99.90
45685;DHT22;46836;48.388;16.210;2024-01-30T14:12:54;4.70;99.90
45685;DHT22;46836;48.388;16.210;2024-01-30T14:15:21;4.70;99.90
45685;DHT22;46836;48.388;16.210;2024-01-30T14:17:55;4.70;99.90
45685;DHT22;46836;48.388;16.210;2024-01-30T14:20:25;4.70;99.90
45685;DHT22;46836;48.388;16.210;2024-01-30T14:22:52;4.70;99.90
45685;DHT22;46836;48.388;16.210;2024-01-30T14:25:20;4.80;99.90
45685;DHT22;46836;48.388;16.210;2024-01-30T14:27:48;4.80;99.90
45685;DHT22;46836;48.388;16.210;2024-01-30T14:30:16;4.70;99.90
45685;DHT22;46836;48.388;16.210;2024-01-30T14:32:43;4.70;99.90
45685;DHT22;46836;48.388;16.210;2024-01-30T14:35:12;4.70;99.90
45685;DHT22;46836;48.388;16.210;2024-01-30T14:37:39;4.60;99.90
45685;DHT22;46836;48.388;16.210;2024-01-30T14:40:07;4.60;99.90
45685;DHT22;46836;48.388;16.210;2024-01-30T14:42:35;4.60;99.90
45685;DHT22;46836;48.388;16.210;2024-01-30T14:45:05;4.50;99.90
45685;DHT22;46836;48.388;16.210;2024-01-30T14:47:34;4.50;99.90
45685;DHT22;46836;48.388;16.210;2024-01-30T14:50:03;4.40;99.90
45685;DHT22;46836;48.388;16.210;2024-01-30T14:52:35;4.30;99.90
45685;DHT22;46836;48.388;16.210;2024-01-30T14:55:03;4.30;99.90
45685;DHT22;46836;48.388;16.210;2024-01-30T14:57:30;4.20;99.90
45685;DHT22;46836;48.388;16.210;2024-01-30T14:59:57;4.20;99.90
45685;DHT22;46836;48.388;16.210;2024-01-30T15:02:25;4.20;99.90
45685;DHT22;46836;48.388;16.210;2024-01-30T15:04:52;4.10;99.90
45685;DHT22;46836;48.388;16.210;2024-01-30T15:07:19;4.10;99.90
45685;DHT22;46836;48.388;16.210;2024-01-30T15:09:59;4.10;99.90
45685;DHT22;46836;48.388;16.210;2024-01-30T15:12:26;4.00;99.90
45685;DHT22;46836;48.388;16.210;2024-01-30T15:14:53;4.00;99.90
45685;DHT22;46836;48.388;16.210;2024-01-30T15:17:21;3.90;99.90
45685;DHT22;46836;48.388;16.210;2024-01-30T15:19:50;3.90;99.90
45685;DHT22;46836;48.388;16.210;2024-01-30T15:22:18;3.90;99.90
45685;DHT22;46836;48.388;16.210;2024-01-30T15:24:45;3.80;99.90
45685;DHT22;46836;48.388;16.210;2024-01-30T15:27:12;3.80;99.90
45685;DHT22;46836;48.388;16.210;2024-01-30T15:29:39;3.70;99.90
45685;DHT22;46836;48.388;16.210;2024-01-30T15:32:06;3.60;99.90
45685;DHT22;46836;48.388;16.210;2024-01-30T15:34:33;3.60;99.90
45685;DHT22;46836;48.388;16.210;2024-01-30T15:37:01;3.50;99.90